This is the latest recevied weather packets stored in our database for station/object EA1JVZ-1. If no packets are shown the sender has not sent any weather packets the latest 10 day(s).
| Time | Temp. | Humidity | Pressure | Rain* | Wind** | Luminosity | Snow |
|---|---|---|---|---|---|---|---|
| 1777801851 | 13.89° C | 56% | 1023.9 hPa | - | - | - | - |
| 1777647052 | 32.78° C | 37% | 1028.2 hPa | - | - | - | - |
| 1777646152 | 33.33° C | 36% | 1028.2 hPa | - | - | - | - |
| 1777645252 | 31.67° C | 38% | 1028.3 hPa | - | - | - | - |
| 1777644351 | 32.22° C | 37% | 1028.6 hPa | - | - | - | - |
| 1777643451 | 32.22° C | 38% | 1028.6 hPa | - | - | - | - |
| 1777642551 | 31.11° C | 38% | 1028.5 hPa | - | - | - | - |
| 1777641651 | 31.11° C | 38% | 1028.7 hPa | - | - | - | - |
| 1777640751 | 29.44° C | 39% | 1028.7 hPa | - | - | - | - |
| 1777639850 | 29.44° C | 37% | 1028.7 hPa | - | - | - | - |
| 1777638950 | 27.78° C | 40% | 1028.8 hPa | - | - | - | - |
| 1777638050 | 27.78° C | 40% | 1028.8 hPa | - | - | - | - |
| 1777637149 | 27.22° C | 38% | 1028.9 hPa | - | - | - | - |
| 1777636249 | 25.56° C | 40% | 1029 hPa | - | - | - | - |
| 1777635349 | 23.89° C | 41% | 1029 hPa | - | - | - | - |
| 1777634449 | 21.67° C | 45% | 1029.3 hPa | - | - | - | - |
| 1777633549 | 19.44° C | 47% | 1029.3 hPa | - | - | - | - |
| 1777632648 | 19.44° C | 47% | 1029.4 hPa | - | - | - | - |
| 1777631748 | 19.44° C | 47% | 1029.3 hPa | - | - | - | - |
| 1777630847 | 20° C | 46% | 1029.2 hPa | - | - | - | - |
| 1777629947 | 18.89° C | 47% | 1029.2 hPa | - | - | - | - |
| 1777629046 | 18.89° C | 46% | 1029.1 hPa | - | - | - | - |
| 1777568775 | 32.78° C | 38% | 1026.3 hPa | - | - | - | - |
| 1777566070 | 29.44° C | 40% | 1026.5 hPa | - | - | - | - |
| 1777565170 | 25° C | 45% | 1026.5 hPa | - | - | - | - |
* Rain since midnight (hover to see other rain measurements)
** Current wind speed in m/s (hover to see current wind gust speed)